Portada
METAR-TAF:

METAR-TAF

Aeropuertos :

Dübendorf, Suiza

latitud: 47-23-55N, longitud: 8-38-53E, altitud: 448 m

Observación

El informe se hizo hace 36 minutos, a las 01:20 UTC
Viento 8 kt del oeste-suroeste, variando entre sur-suroeste y oeste-noroeste
Temperatura 1°C
Humedad 86%
Presión 1012 hPa
Visibilidad: 6000 m
Cielo nuboso a una altura de 1500 ft
Cielo nuboso a una altura de 1900 ft
Cielo cubierto a una altura de 2200 ft
lluvia ligera, nieve

METAR: LSMD 270120Z AUTO 25008KT 210V290 6000NDV -RASN BKN015 BKN019 OVC022 01/M01 Q1012 RMK

Hora: 02:56 (01:56 UTC)


TAF: falta

Observaciones y pronósticos meteorológicos de más de 4000 aeropuertos (mensajes METAR y TAF).

Los puntos amarillos y rojos representan las estaciones disponibles.

Ponga el ratón en el punto deseado para ver el nombre de la estación.

Haga clic para ver las observaciones y los pronósticos meteorológicos.

Para cambiar el mapa : haga clic en los botones verdes con una cruz de color negro para hacer un zoom, en el botón verde con un guión para alejar o en las flechas verdes para mapas adyacentes.


METAR-TAF: